Grete Maersk — OYCY2 — position and weather

sailwx.info

Track history (hours):
 
Tides and Currents Weather Stations Pressure Air Temp Water Temp Dewpoint Dewpoint Depression Visibility Wind Speed Wind Dir Waves Ship Positions

Grete Maersk

Last reported at 2017-Dec-09 00:16 UTC. Time now 2017-Dec-14 06:22 UTC.
Position N 34°06' E 025°46'.

MMSI: 218824136.

Date/timePositionNaut miles runAvg speedWind from/ knotsBaromVisibWave heightAir tempDewpointWater temp
2017-Dec-09 00:16N 34°06' E 025°46'721.3
2017-Dec-08 23:57N 34°10' E 025°39'921.3
2017-Dec-08 23:30N 34°14' E 025°29'1521.2
2017-Dec-08 22:48N 34°20' E 025°12'921.0
2017-Dec-08 22:21N 34°24' E 025°02'10520.5
2017-Dec-08 17:14N 35°06' E 023°05'36320.5
2017-Dec-07 23:30N 37°36' E 016°15'1020.2
2017-Dec-07 23:00N 37°40' E 016°03'1020.0
2017-Dec-07 22:30N 37°44' E 015°52'2917.3
2017-Dec-07 20:50N 38°10' E 015°35'514.1
2017-Dec-07 20:27N 38°15' E 015°38'612.4
2017-Dec-07 20:01N 38°19' E 015°42'5 8.9
2017-Dec-07 19:30N 38°23' E 015°46'711.1
2017-Dec-07 18:52N 38°28' E 015°53'1 0.3
2017-Dec-07 13:47N 38°28' E 015°55'0 0.0
2017-Dec-07 13:29N 38°28' E 015°55'0 0.0
2017-Dec-07 12:36N 38°28' E 015°55'0 0.0
2017-Dec-07 12:29N 38°28' E 015°55'0 0.0
2017-Dec-07 12:00N 38°28' E 015°55'  
2017-Dec-04 08:15N 44°14' E 014°18'416.0
2017-Dec-04 08:00N 44°18' E 014°16'815.9
2017-Dec-04 07:31N 44°25' E 014°11'815.5
2017-Dec-04 07:00N 44°33' E 014°08'815.8
2017-Dec-04 06:31N 44°40' E 014°08'1515.8
2017-Dec-04 05:34N 44°55' E 014°12'2611.8
2017-Dec-04 03:19N 45°19' E 014°27'0 0.0
2017-Dec-03 15:09N 45°19' E 014°27'0 0.0
2017-Dec-03 04:48N 45°19' E 014°27'0 0.0
2017-Dec-03 04:30N 45°19' E 014°27'0 0.0
2017-Dec-03 03:18N 45°19' E 014°27'0 0.0
2017-Dec-03 02:54N 45°19' E 014°27'0 0.0
2017-Dec-02 04:49N 45°19' E 014°27'1 3.1
2017-Dec-02 04:29N 45°19' E 014°26'2 3.6
2017-Dec-02 04:01N 45°18' E 014°23'3 5.1
2017-Dec-02 03:30N 45°16' E 014°22'713.9
2017-Dec-02 03:00N 45°10' E 014°17'1114.6
2017-Dec-02 02:17N 44°60' E 014°13'415.2
2017-Dec-02 02:00N 44°55' E 014°11'815.5
2017-Dec-02 01:30N 44°49' E 014°07'815.9
2017-Dec-02 01:00N 44°43' E 013°59'714.6
2017-Dec-02 00:30N 44°42' E 013°49'815.5
2017-Dec-02 00:00N 44°42' E 013°38'714.4
2017-Dec-01 23:31N 44°44' E 013°28'714.7
2017-Dec-01 23:01N 44°50' E 013°22'714.9
2017-Dec-01 22:30N 44°56' E 013°17'815.1
2017-Dec-01 22:00N 45°03' E 013°11'715.0
2017-Dec-01 21:31N 45°09' E 013°06'815.5
2017-Dec-01 21:01N 45°17' E 013°03'815.2
2017-Dec-01 20:31N 45°24' E 013°02'714.3
2017-Dec-01 20:01N 45°30' E 013°09'816.4
2017-Dec-01 19:31N 45°33' E 013°19'816.3
2017-Dec-01 19:01N 45°37' E 013°30'714.6
2017-Dec-01 18:31N 45°39' E 013°40'4 8.6
2017-Dec-01 18:01N 45°38' E 013°45'0 0.7
2017-Dec-01 17:29N 45°38' E 013°46'0 0.0
2017-Dec-01 16:59N 45°38' E 013°46'0 0.0
2017-Dec-01 16:29N 45°38' E 013°46'0 0.0
2017-Dec-01 15:56N 45°38' E 013°46'0 0.0
2017-Dec-01 15:26N 45°38' E 013°46'0 0.0
2017-Dec-01 14:56N 45°38' E 013°46'0 0.0
2017-Dec-01 14:29N 45°38' E 013°46'0 0.0
2017-Dec-01 13:59N 45°38' E 013°46'0 0.0
2017-Dec-01 13:26N 45°38' E 013°46'0 0.0
2017-Dec-01 12:59N 45°38' E 013°46'0 0.0
2017-Dec-01 12:29N 45°38' E 013°46'0 0.0
2017-Dec-01 11:59N 45°38' E 013°46'0 0.0
2017-Dec-01 11:23N 45°38' E 013°46'0 0.0
2017-Dec-01 10:59N 45°38' E 013°46'0 0.0
2017-Dec-01 10:29N 45°38' E 013°46'0 0.0
2017-Dec-01 09:59N 45°38' E 013°46'0 0.0
2017-Dec-01 09:29N 45°38' E 013°46'0 0.0
2017-Dec-01 08:59N 45°38' E 013°46'0 0.0
2017-Dec-01 08:29N 45°38' E 013°46'0 0.0
2017-Dec-01 07:59N 45°38' E 013°46'0 0.0
2017-Dec-01 07:29N 45°38' E 013°46'0 0.0
2017-Dec-01 06:59N 45°38' E 013°46'0 0.0
2017-Dec-01 06:29N 45°38' E 013°46'0 0.0
2017-Dec-01 05:59N 45°38' E 013°46'0 0.0
2017-Dec-01 05:26N 45°38' E 013°46'0 0.0
2017-Dec-01 04:53N 45°38' E 013°46'0 0.0
2017-Dec-01 04:29N 45°38' E 013°46'0 0.0
2017-Dec-01 03:59N 45°38' E 013°46'0 0.0
2017-Dec-01 03:29N 45°38' E 013°46'0 0.0
2017-Dec-01 02:59N 45°38' E 013°46'0 0.0
2017-Dec-01 02:29N 45°38' E 013°46'0 0.0
2017-Dec-01 01:59N 45°38' E 013°46'0 0.0
2017-Dec-01 01:29N 45°38' E 013°46'0 0.0
2017-Dec-01 00:59N 45°38' E 013°46'0 0.0
2017-Dec-01 00:26N 45°38' E 013°46'0 0.0
2017-Nov-30 23:59N 45°38' E 013°46'0 0.0
2017-Nov-30 23:29N 45°38' E 013°46'0 0.0
2017-Nov-30 22:56N 45°38' E 013°46'0 0.0
2017-Nov-30 22:29N 45°38' E 013°46'0 0.0
2017-Nov-30 21:56N 45°38' E 013°46'0 0.0
2017-Nov-30 21:29N 45°38' E 013°46'0 0.0
2017-Nov-30 20:59N 45°38' E 013°46'0 0.0
2017-Nov-30 20:29N 45°38' E 013°46'0 0.0
2017-Nov-30 19:56N 45°38' E 013°46'0 0.0
2017-Nov-30 19:29N 45°38' E 013°46'0 0.0
2017-Nov-30 18:59N 45°38' E 013°46'0 0.0
2017-Nov-30 18:29N 45°38' E 013°46'0 0.0
2017-Nov-30 17:59N 45°38' E 013°46'0 0.0
2017-Nov-30 17:29N 45°38' E 013°46'0 0.0
2017-Nov-30 16:59N 45°38' E 013°46'0 0.0
2017-Nov-30 16:29N 45°38' E 013°46'0 0.0
2017-Nov-30 15:56N 45°38' E 013°46'0 0.0
2017-Nov-30 15:26N 45°38' E 013°46'0 0.0
2017-Nov-30 14:56N 45°38' E 013°46'0 0.0
2017-Nov-30 14:29N 45°38' E 013°46'0 0.0
2017-Nov-30 13:59N 45°38' E 013°46'0 0.0
2017-Nov-30 13:17N 45°38' E 013°46'0 0.0
2017-Nov-30 12:59N 45°38' E 013°46'0 0.0
2017-Nov-30 12:20N 45°38' E 013°46'0 0.0
2017-Nov-30 11:56N 45°38' E 013°46'0 0.0
2017-Nov-30 11:26N 45°38' E 013°46'0 0.0
2017-Nov-30 10:53N 45°38' E 013°46'0 0.0
2017-Nov-30 10:26N 45°38' E 013°46'0 0.0
2017-Nov-30 09:59N 45°38' E 013°46'0 0.0
2017-Nov-30 09:29N 45°38' E 013°46'0 0.0
2017-Nov-30 08:59N 45°38' E 013°46'0 0.0
2017-Nov-30 08:29N 45°38' E 013°46'0 0.0
2017-Nov-30 07:59N 45°38' E 013°46'0 0.0
2017-Nov-30 07:29N 45°38' E 013°46'0 0.0
2017-Nov-30 06:56N 45°38' E 013°46'0 0.0
2017-Nov-30 06:29N 45°38' E 013°46'0 0.0
2017-Nov-30 05:29N 45°38' E 013°46'0 0.0
2017-Nov-30 04:59N 45°38' E 013°46'0 0.0
2017-Nov-30 04:23N 45°38' E 013°46'0 0.0
2017-Nov-30 03:59N 45°38' E 013°46'0 0.0
2017-Nov-30 03:23N 45°38' E 013°46'0 0.0
2017-Nov-30 02:59N 45°38' E 013°46'0 0.0
2017-Nov-30 02:23N 45°38' E 013°46'0 0.0
2017-Nov-30 01:59N 45°38' E 013°46'0 0.0
2017-Nov-30 01:29N 45°38' E 013°46'0 0.0
2017-Nov-30 00:56N 45°38' E 013°46'0 0.0
2017-Nov-30 00:26N 45°38' E 013°46'0 0.0
2017-Nov-29 23:59N 45°38' E 013°46'0 0.0
2017-Nov-29 23:29N 45°38' E 013°46'0 0.0
2017-Nov-29 22:53N 45°38' E 013°46'0 0.0
2017-Nov-29 22:29N 45°38' E 013°46'0 0.0
2017-Nov-29 21:56N 45°38' E 013°46'0 0.0
2017-Nov-29 21:29N 45°38' E 013°46'0 0.0
2017-Nov-29 20:56N 45°38' E 013°46'0 0.0
2017-Nov-29 20:23N 45°38' E 013°46'0 0.0
2017-Nov-29 19:44N 45°38' E 013°46'0 0.0
2017-Nov-29 19:29N 45°38' E 013°46'0 0.0
2017-Nov-29 18:59N 45°38' E 013°46'0 0.0
2017-Nov-29 18:23N 45°38' E 013°46'0 0.0
2017-Nov-29 17:59N 45°38' E 013°46'0 0.0
2017-Nov-29 17:29N 45°38' E 013°46'0 0.0
2017-Nov-29 17:00N 45°38' E 013°46'1 1.6
2017-Nov-29 16:30N 45°38' E 013°45'3 7.0
2017-Nov-29 16:00N 45°39' E 013°40'1 1.5
2017-Nov-29 15:30N 45°38' E 013°40'0 0.8
2017-Nov-29 15:00N 45°38' E 013°39'2 3.1
2017-Nov-29 14:30N 45°37' E 013°39'3 5.1
2017-Nov-29 14:00N 45°34' E 013°41'2 3.4
2017-Nov-29 13:30N 45°33' E 013°43'1 1.8
2017-Nov-29 13:00N 45°33' E 013°44'0 0.0
2017-Nov-29 12:30N 45°33' E 013°44'0 0.0
2017-Nov-29 12:00N 45°33' E 013°44'0 0.0
2017-Nov-29 11:30N 45°33' E 013°44'0 0.0
2017-Nov-29 11:00N 45°33' E 013°44'0 0.0
2017-Nov-29 10:30N 45°33' E 013°44'0 0.0
2017-Nov-29 09:57N 45°33' E 013°44'0 0.0
2017-Nov-29 09:30N 45°33' E 013°44'0 0.0
2017-Nov-29 08:57N 45°33' E 013°44'0 0.0
2017-Nov-29 08:30N 45°33' E 013°44'0 0.0
2017-Nov-29 07:57N 45°33' E 013°44'0 0.0
2017-Nov-29 07:21N 45°33' E 013°44'0 0.0
2017-Nov-29 07:00N 45°33' E 013°44'0 0.0
2017-Nov-29 06:30N 45°33' E 013°44'0 0.0
2017-Nov-29 06:00N 45°33' E 013°44'0 0.0
2017-Nov-29 05:21N 45°33' E 013°44'0 0.0
2017-Nov-29 05:00N 45°33' E 013°44'0 0.0
2017-Nov-29 04:30N 45°33' E 013°44'0 0.0
2017-Nov-29 03:57N 45°33' E 013°44'0 0.0
2017-Nov-29 03:27N 45°33' E 013°44'0 0.0
2017-Nov-29 03:00N 45°33' E 013°44'0 0.0
2017-Nov-29 02:24N 45°33' E 013°44'0 0.0
2017-Nov-29 01:57N 45°33' E 013°44'0 0.0
2017-Nov-29 01:30N 45°33' E 013°44'0 0.0
2017-Nov-29 01:00N 45°33' E 013°44'0 0.0
2017-Nov-29 00:27N 45°33' E 013°44'  
Track history (hours):
 
Tides and Currents Weather Stations Pressure Air Temp Water Temp Dewpoint Dewpoint Depression Visibility Wind Speed Wind Dir Waves Ship Positions

Grete Maersk

Last reported at 2017-Dec-09 00:16 UTC. Time now 2017-Dec-14 06:22 UTC.
Position N 34°06' E 025°46'.

MMSI: 218824136.

Date/timePositionNaut miles runAvg speedWind from/ knotsBaromVisibWave heightAir tempDewpointWater temp
2017-Dec-09 00:16N 34°06' E 025°46'721.3
2017-Dec-08 23:57N 34°10' E 025°39'921.3
2017-Dec-08 23:30N 34°14' E 025°29'1521.2
2017-Dec-08 22:48N 34°20' E 025°12'921.0
2017-Dec-08 22:21N 34°24' E 025°02'10520.5
2017-Dec-08 17:14N 35°06' E 023°05'36320.5
2017-Dec-07 23:30N 37°36' E 016°15'1020.2
2017-Dec-07 23:00N 37°40' E 016°03'1020.0
2017-Dec-07 22:30N 37°44' E 015°52'2917.3
2017-Dec-07 20:50N 38°10' E 015°35'514.1
2017-Dec-07 20:27N 38°15' E 015°38'612.4
2017-Dec-07 20:01N 38°19' E 015°42'5 8.9
2017-Dec-07 19:30N 38°23' E 015°46'711.1
2017-Dec-07 18:52N 38°28' E 015°53'1 0.3
2017-Dec-07 13:47N 38°28' E 015°55'0 0.0
2017-Dec-07 13:29N 38°28' E 015°55'0 0.0
2017-Dec-07 12:36N 38°28' E 015°55'0 0.0
2017-Dec-07 12:29N 38°28' E 015°55'0 0.0
2017-Dec-07 12:00N 38°28' E 015°55'  
2017-Dec-04 08:15N 44°14' E 014°18'416.0
2017-Dec-04 08:00N 44°18' E 014°16'815.9
2017-Dec-04 07:31N 44°25' E 014°11'815.5
2017-Dec-04 07:00N 44°33' E 014°08'815.8
2017-Dec-04 06:31N 44°40' E 014°08'1515.8
2017-Dec-04 05:34N 44°55' E 014°12'2611.8
2017-Dec-04 03:19N 45°19' E 014°27'0 0.0
2017-Dec-03 15:09N 45°19' E 014°27'0 0.0
2017-Dec-03 04:48N 45°19' E 014°27'0 0.0
2017-Dec-03 04:30N 45°19' E 014°27'0 0.0
2017-Dec-03 03:18N 45°19' E 014°27'0 0.0
2017-Dec-03 02:54N 45°19' E 014°27'0 0.0
2017-Dec-02 04:49N 45°19' E 014°27'1 3.1
2017-Dec-02 04:29N 45°19' E 014°26'2 3.6
2017-Dec-02 04:01N 45°18' E 014°23'3 5.1
2017-Dec-02 03:30N 45°16' E 014°22'713.9
2017-Dec-02 03:00N 45°10' E 014°17'1114.6
2017-Dec-02 02:17N 44°60' E 014°13'415.2
2017-Dec-02 02:00N 44°55' E 014°11'815.5
2017-Dec-02 01:30N 44°49' E 014°07'815.9
2017-Dec-02 01:00N 44°43' E 013°59'714.6
2017-Dec-02 00:30N 44°42' E 013°49'815.5
2017-Dec-02 00:00N 44°42' E 013°38'714.4
2017-Dec-01 23:31N 44°44' E 013°28'714.7
2017-Dec-01 23:01N 44°50' E 013°22'714.9
2017-Dec-01 22:30N 44°56' E 013°17'815.1
2017-Dec-01 22:00N 45°03' E 013°11'715.0
2017-Dec-01 21:31N 45°09' E 013°06'815.5
2017-Dec-01 21:01N 45°17' E 013°03'815.2
2017-Dec-01 20:31N 45°24' E 013°02'714.3
2017-Dec-01 20:01N 45°30' E 013°09'816.4
2017-Dec-01 19:31N 45°33' E 013°19'816.3
2017-Dec-01 19:01N 45°37' E 013°30'714.6
2017-Dec-01 18:31N 45°39' E 013°40'4 8.6
2017-Dec-01 18:01N 45°38' E 013°45'0 0.7
2017-Dec-01 17:29N 45°38' E 013°46'0 0.0
2017-Dec-01 16:59N 45°38' E 013°46'0 0.0
2017-Dec-01 16:29N 45°38' E 013°46'0 0.0
2017-Dec-01 15:56N 45°38' E 013°46'0 0.0
2017-Dec-01 15:26N 45°38' E 013°46'0 0.0
2017-Dec-01 14:56N 45°38' E 013°46'0 0.0
2017-Dec-01 14:29N 45°38' E 013°46'0 0.0
2017-Dec-01 13:59N 45°38' E 013°46'0 0.0
2017-Dec-01 13:26N 45°38' E 013°46'0 0.0
2017-Dec-01 12:59N 45°38' E 013°46'0 0.0
2017-Dec-01 12:29N 45°38' E 013°46'0 0.0
2017-Dec-01 11:59N 45°38' E 013°46'0 0.0
2017-Dec-01 11:23N 45°38' E 013°46'0 0.0
2017-Dec-01 10:59N 45°38' E 013°46'0 0.0
2017-Dec-01 10:29N 45°38' E 013°46'0 0.0
2017-Dec-01 09:59N 45°38' E 013°46'0 0.0
2017-Dec-01 09:29N 45°38' E 013°46'0 0.0
2017-Dec-01 08:59N 45°38' E 013°46'0 0.0
2017-Dec-01 08:29N 45°38' E 013°46'0 0.0
2017-Dec-01 07:59N 45°38' E 013°46'0 0.0
2017-Dec-01 07:29N 45°38' E 013°46'0 0.0
2017-Dec-01 06:59N 45°38' E 013°46'0 0.0
2017-Dec-01 06:29N 45°38' E 013°46'0 0.0
2017-Dec-01 05:59N 45°38' E 013°46'0 0.0
2017-Dec-01 05:26N 45°38' E 013°46'0 0.0
2017-Dec-01 04:53N 45°38' E 013°46'0 0.0
2017-Dec-01 04:29N 45°38' E 013°46'0 0.0
2017-Dec-01 03:59N 45°38' E 013°46'0 0.0
2017-Dec-01 03:29N 45°38' E 013°46'0 0.0
2017-Dec-01 02:59N 45°38' E 013°46'0 0.0
2017-Dec-01 02:29N 45°38' E 013°46'0 0.0
2017-Dec-01 01:59N 45°38' E 013°46'0 0.0
2017-Dec-01 01:29N 45°38' E 013°46'0 0.0
2017-Dec-01 00:59N 45°38' E 013°46'0 0.0
2017-Dec-01 00:26N 45°38' E 013°46'0 0.0
2017-Nov-30 23:59N 45°38' E 013°46'0 0.0
2017-Nov-30 23:29N 45°38' E 013°46'0 0.0
2017-Nov-30 22:56N 45°38' E 013°46'0 0.0
2017-Nov-30 22:29N 45°38' E 013°46'0 0.0
2017-Nov-30 21:56N 45°38' E 013°46'0 0.0
2017-Nov-30 21:29N 45°38' E 013°46'0 0.0
2017-Nov-30 20:59N 45°38' E 013°46'0 0.0
2017-Nov-30 20:29N 45°38' E 013°46'0 0.0
2017-Nov-30 19:56N 45°38' E 013°46'0 0.0
2017-Nov-30 19:29N 45°38' E 013°46'0 0.0
2017-Nov-30 18:59N 45°38' E 013°46'0 0.0
2017-Nov-30 18:29N 45°38' E 013°46'0 0.0
2017-Nov-30 17:59N 45°38' E 013°46'0 0.0
2017-Nov-30 17:29N 45°38' E 013°46'0 0.0
2017-Nov-30 16:59N 45°38' E 013°46'0 0.0
2017-Nov-30 16:29N 45°38' E 013°46'0 0.0
2017-Nov-30 15:56N 45°38' E 013°46'0 0.0
2017-Nov-30 15:26N 45°38' E 013°46'0 0.0
2017-Nov-30 14:56N 45°38' E 013°46'0 0.0
2017-Nov-30 14:29N 45°38' E 013°46'0 0.0
2017-Nov-30 13:59N 45°38' E 013°46'0 0.0
2017-Nov-30 13:17N 45°38' E 013°46'0 0.0
2017-Nov-30 12:59N 45°38' E 013°46'0 0.0
2017-Nov-30 12:20N 45°38' E 013°46'0 0.0
2017-Nov-30 11:56N 45°38' E 013°46'0 0.0
2017-Nov-30 11:26N 45°38' E 013°46'0 0.0
2017-Nov-30 10:53N 45°38' E 013°46'0 0.0
2017-Nov-30 10:26N 45°38' E 013°46'0 0.0
2017-Nov-30 09:59N 45°38' E 013°46'0 0.0
2017-Nov-30 09:29N 45°38' E 013°46'0 0.0
2017-Nov-30 08:59N 45°38' E 013°46'0 0.0
2017-Nov-30 08:29N 45°38' E 013°46'0 0.0
2017-Nov-30 07:59N 45°38' E 013°46'0 0.0
2017-Nov-30 07:29N 45°38' E 013°46'0 0.0
2017-Nov-30 06:56N 45°38' E 013°46'0 0.0
2017-Nov-30 06:29N 45°38' E 013°46'0 0.0
2017-Nov-30 05:29N 45°38' E 013°46'0 0.0
2017-Nov-30 04:59N 45°38' E 013°46'0 0.0
2017-Nov-30 04:23N 45°38' E 013°46'0 0.0
2017-Nov-30 03:59N 45°38' E 013°46'0 0.0
2017-Nov-30 03:23N 45°38' E 013°46'0 0.0
2017-Nov-30 02:59N 45°38' E 013°46'0 0.0
2017-Nov-30 02:23N 45°38' E 013°46'0 0.0
2017-Nov-30 01:59N 45°38' E 013°46'0 0.0
2017-Nov-30 01:29N 45°38' E 013°46'0 0.0
2017-Nov-30 00:56N 45°38' E 013°46'0 0.0
2017-Nov-30 00:26N 45°38' E 013°46'0 0.0
2017-Nov-29 23:59N 45°38' E 013°46'0 0.0
2017-Nov-29 23:29N 45°38' E 013°46'0 0.0
2017-Nov-29 22:53N 45°38' E 013°46'0 0.0
2017-Nov-29 22:29N 45°38' E 013°46'0 0.0
2017-Nov-29 21:56N 45°38' E 013°46'0 0.0
2017-Nov-29 21:29N 45°38' E 013°46'0 0.0
2017-Nov-29 20:56N 45°38' E 013°46'0 0.0
2017-Nov-29 20:23N 45°38' E 013°46'0 0.0
2017-Nov-29 19:44N 45°38' E 013°46'0 0.0
2017-Nov-29 19:29N 45°38' E 013°46'0 0.0
2017-Nov-29 18:59N 45°38' E 013°46'0 0.0
2017-Nov-29 18:23N 45°38' E 013°46'0 0.0
2017-Nov-29 17:59N 45°38' E 013°46'0 0.0
2017-Nov-29 17:29N 45°38' E 013°46'0 0.0
2017-Nov-29 17:00N 45°38' E 013°46'1 1.6
2017-Nov-29 16:30N 45°38' E 013°45'3 7.0
2017-Nov-29 16:00N 45°39' E 013°40'1 1.5
2017-Nov-29 15:30N 45°38' E 013°40'0 0.8
2017-Nov-29 15:00N 45°38' E 013°39'2 3.1
2017-Nov-29 14:30N 45°37' E 013°39'3 5.1
2017-Nov-29 14:00N 45°34' E 013°41'2 3.4
2017-Nov-29 13:30N 45°33' E 013°43'1 1.8
2017-Nov-29 13:00N 45°33' E 013°44'0 0.0
2017-Nov-29 12:30N 45°33' E 013°44'0 0.0
2017-Nov-29 12:00N 45°33' E 013°44'0 0.0
2017-Nov-29 11:30N 45°33' E 013°44'0 0.0
2017-Nov-29 11:00N 45°33' E 013°44'0 0.0
2017-Nov-29 10:30N 45°33' E 013°44'0 0.0
2017-Nov-29 09:57N 45°33' E 013°44'0 0.0
2017-Nov-29 09:30N 45°33' E 013°44'0 0.0
2017-Nov-29 08:57N 45°33' E 013°44'0 0.0
2017-Nov-29 08:30N 45°33' E 013°44'0 0.0
2017-Nov-29 07:57N 45°33' E 013°44'0 0.0
2017-Nov-29 07:21N 45°33' E 013°44'0 0.0
2017-Nov-29 07:00N 45°33' E 013°44'0 0.0
2017-Nov-29 06:30N 45°33' E 013°44'0 0.0
2017-Nov-29 06:00N 45°33' E 013°44'0 0.0
2017-Nov-29 05:21N 45°33' E 013°44'0 0.0
2017-Nov-29 05:00N 45°33' E 013°44'0 0.0
2017-Nov-29 04:30N 45°33' E 013°44'0 0.0
2017-Nov-29 03:57N 45°33' E 013°44'0 0.0
2017-Nov-29 03:27N 45°33' E 013°44'0 0.0
2017-Nov-29 03:00N 45°33' E 013°44'0 0.0
2017-Nov-29 02:24N 45°33' E 013°44'0 0.0
2017-Nov-29 01:57N 45°33' E 013°44'0 0.0
2017-Nov-29 01:30N 45°33' E 013°44'0 0.0
2017-Nov-29 01:00N 45°33' E 013°44'0 0.0
2017-Nov-29 00:27N 45°33' E 013°44'  

Dump ship's entire track history